Time;durP1;ratioP1;P1;durP2;ratioP2;P2;SDS_P1;SDS_P2;PMS_P1;PMS_P2;Temp;Humidity;BMP_temperature;BMP_pressure;BME280_temperature;BME280_humidity;BME280_pressure;Samples;Min_cycle;Max_cycle;Signal;HPM_P1;HPM_P2
2021/07/30 00:00:09;;;;;;;;;;;;;;;15.69;100.00;100111.63;5018974;28;19964;-66
2021/07/30 00:02:53;;;;;;;;;;;;;;;15.66;100.00;100111.94;5018878;28;19920;-65
2021/07/30 00:05:37;;;;;;;;;;;;;;;15.66;100.00;100113.81;5018366;28;20286;-66
2021/07/30 00:08:21;;;;;;;;;;;;;;;15.62;100.00;100117.03;5018346;28;20401;-66
2021/07/30 00:11:06;;;;;;;;;;;;;;;15.58;100.00;100106.63;5018428;28;19980;-66
2021/07/30 00:13:50;;;;;;;;;;;;;;;15.55;100.00;100114.25;5018107;28;19970;-66
2021/07/30 00:16:34;;;;;;;;;;;;;;;15.53;100.00;100115.44;5018467;28;19920;-65
2021/07/30 00:19:18;;;;;;;;;;;;;;;15.52;100.00;100113.75;5018726;28;19923;-66
2021/07/30 00:22:02;;;;;;;;;;;;;;;15.51;100.00;100112.09;5018920;28;19920;-66
2021/07/30 00:24:45;;;;;;;;;;;;;;;15.49;100.00;100108.75;5021508;28;20036;-66
2021/07/30 00:27:29;;;;;;;;;;;;;;;15.50;100.00;100110.44;5022722;28;20453;-66
2021/07/30 00:30:14;;;;;;;;;;;;;;;15.46;100.00;100109.09;5022681;28;19935;-66
2021/07/30 00:32:57;;;;;;;;;;;;;;;15.41;100.00;100106.13;5022269;28;19920;-66
2021/07/30 00:35:41;;;;;;;;;;;;;;;15.36;100.00;100105.81;5022588;28;20289;-65
2021/07/30 00:38:25;;;;;;;;;;;;;;;15.30;100.00;100099.31;5022473;28;20373;-66
2021/07/30 00:41:10;;;;;;;;;;;;;;;15.28;100.00;100097.75;5022397;28;19975;-66
2021/07/30 00:43:54;;;;;;;;;;;;;;;15.24;100.00;100099.16;5022204;28;20380;-66
2021/07/30 00:46:37;;;;;;;;;;;;;;;15.17;100.00;100106.22;5022744;28;19920;-66
2021/07/30 00:49:21;;;;;;;;;;;;;;;15.11;100.00;100109.66;5022102;28;19920;-65
2021/07/30 00:52:05;;;;;;;;;;;;;;;15.05;100.00;100111.19;5022019;28;20424;-65
2021/07/30 00:54:49;;;;;;;;;;;;;;;15.02;100.00;100108.00;5021957;28;20428;-66
2021/07/30 00:57:33;;;;;;;;;;;;;;;15.02;100.00;100099.97;5022074;28;19921;-65
2021/07/30 01:00:17;;;;;;;;;;;;;;;15.01;100.00;100104.47;5021854;28;19983;-65
2021/07/30 01:03:01;;;;;;;;;;;;;;;14.99;100.00;100103.00;5035713;28;19963;-66
2021/07/30 01:05:45;;;;;;;;;;;;;;;14.96;100.00;100100.66;5021892;28;19920;-66
2021/07/30 01:08:28;;;;;;;;;;;;;;;14.95;100.00;100098.97;5022080;28;19928;-65
2021/07/30 01:11:12;;;;;;;;;;;;;;;14.94;100.00;100098.16;5022243;28;20049;-65
2021/07/30 01:13:56;;;;;;;;;;;;;;;14.93;100.00;100093.81;5021758;28;19920;-65
2021/07/30 01:16:40;;;;;;;;;;;;;;;14.93;100.00;100092.97;5021840;28;19923;-65
2021/07/30 01:19:24;;;;;;;;;;;;;;;14.89;100.00;100092.47;5021413;28;20354;-65
2021/07/30 01:22:24;;;;;;;;;;;;;;;14.86;100.00;100102.72;5021616;28;20360;-65
2021/07/30 01:25:08;;;;;;;;;;;;;;;14.82;100.00;100104.94;5022148;28;19962;-65
2021/07/30 01:27:52;;;;;;;;;;;;;;;14.80;100.00;100106.94;5021330;28;20388;-65
2021/07/30 01:33:26;;;;;;;;;;;;;;;14.75;100.00;100103.09;4995306;28;19929;-67
2021/07/30 01:36:10;;;;;;;;;;;;;;;14.74;100.00;100106.81;4981848;28;20290;-67
2021/07/30 01:38:54;;;;;;;;;;;;;;;14.72;100.00;100101.63;4982134;28;19925;-67
2021/07/30 01:41:39;;;;;;;;;;;;;;;14.68;100.00;100091.41;4976188;28;19988;-67
2021/07/30 01:44:22;;;;;;;;;;;;;;;14.65;100.00;100097.09;4963039;28;20286;-66
2021/07/30 01:47:08;;;;;;;;;;;;;;;14.65;100.00;100103.31;4962524;28;19921;-66
2021/07/30 01:49:52;;;;;;;;;;;;;;;14.65;100.00;100092.59;4962692;28;19988;-67
2021/07/30 01:52:36;;;;;;;;;;;;;;;14.65;100.00;100091.75;4962356;28;20291;-67
2021/07/30 01:55:20;;;;;;;;;;;;;;;14.67;100.00;100095.13;4962643;28;19921;-66
2021/07/30 01:58:04;;;;;;;;;;;;;;;14.65;100.00;100091.75;4962235;28;19925;-67
2021/07/30 02:00:48;;;;;;;;;;;;;;;14.66;100.00;100093.41;4962199;28;19921;-68
2021/07/30 02:03:32;;;;;;;;;;;;;;;14.64;100.00;100087.38;4962463;28;19925;-65
2021/07/30 02:06:16;;;;;;;;;;;;;;;14.65;100.00;100092.59;4976107;28;20040;-66
2021/07/30 02:09:00;;;;;;;;;;;;;;;14.65;100.00;100086.38;4962309;28;19921;-67
2021/07/30 02:11:50;;;;;;;;;;;;;;;14.67;100.00;100082.53;4962056;28;20009;-67
2021/07/30 02:14:34;;;;;;;;;;;;;;;14.69;100.00;100085.03;4963370;28;19921;-68
2021/07/30 02:17:21;;;;;;;;;;;;;;;14.71;100.00;100083.00;4962157;28;19920;-67
2021/07/30 02:20:05;;;;;;;;;;;;;;;14.72;100.00;100088.22;4962538;28;19925;-67
2021/07/30 02:22:49;;;;;;;;;;;;;;;14.73;100.00;100078.31;4961866;28;20016;-68
2021/07/30 02:25:33;;;;;;;;;;;;;;;14.76;100.00;100077.94;4961773;28;19921;-67
2021/07/30 02:28:17;;;;;;;;;;;;;;;14.75;100.00;100081.63;4961791;28;19921;-67
2021/07/30 02:31:01;;;;;;;;;;;;;;;14.74;100.00;100079.97;4975213;28;19921;-66
2021/07/30 02:33:45;;;;;;;;;;;;;;;14.75;100.00;100076.28;4962128;28;19964;-68
2021/07/30 02:36:29;;;;;;;;;;;;;;;14.75;100.00;100078.94;4975560;28;19965;-67
2021/07/30 02:39:13;;;;;;;;;;;;;;;14.77;100.00;100074.25;4975186;28;19980;-68
2021/07/30 02:41:56;;;;;;;;;;;;;;;14.76;100.00;100077.94;4961887;28;19929;-65
2021/07/30 02:44:40;;;;;;;;;;;;;;;14.75;100.00;100068.22;4961482;28;20005;-67
2021/07/30 02:47:24;;;;;;;;;;;;;;;14.77;100.00;100074.25;4961253;28;19921;-67
2021/07/30 02:50:08;;;;;;;;;;;;;;;14.79;100.00;100069.56;4961980;28;19925;-67
2021/07/30 02:52:52;;;;;;;;;;;;;;;14.80;100.00;100071.22;4961239;28;20393;-67
2021/07/30 02:55:36;;;;;;;;;;;;;;;14.80;100.00;100063.19;4961802;28;19937;-66
2021/07/30 02:58:19;;;;;;;;;;;;;;;14.81;100.00;100067.53;4961624;28;19949;-66
2021/07/30 03:01:04;;;;;;;;;;;;;;;14.84;100.00;100057.28;4960935;28;19921;-67
2021/07/30 03:03:48;;;;;;;;;;;;;;;14.90;100.00;100064.63;4961158;28;19929;-66
2021/07/30 03:06:32;;;;;;;;;;;;;;;14.93;100.00;100052.69;4961298;28;19964;-67
2021/07/30 03:09:16;;;;;;;;;;;;;;;14.97;100.00;100054.00;4961281;28;19941;-67
2021/07/30 03:12:00;;;;;;;;;;;;;;;14.96;100.00;100046.97;4961236;28;20354;-65
2021/07/30 03:14:43;;;;;;;;;;;;;;;14.95;100.00;100042.63;4961163;28;19928;-66
2021/07/30 03:17:27;;;;;;;;;;;;;;;14.94;100.00;100039.09;4960851;28;20422;-67
2021/07/30 03:20:12;;;;;;;;;;;;;;;14.95;100.00;100040.78;4960857;28;20375;-67
2021/07/30 03:22:55;;;;;;;;;;;;;;;14.95;100.00;100039.94;4974366;28;20394;-67
2021/07/30 03:25:39;;;;;;;;;;;;;;;14.97;100.00;100043.25;4974462;28;20406;-68
2021/07/30 03:28:23;;;;;;;;;;;;;;;14.96;100.00;100042.44;4974614;28;19928;-67
2021/07/30 03:31:07;;;;;;;;;;;;;;;14.98;100.00;100040.41;4960722;28;19921;-66
2021/07/30 03:33:51;;;;;;;;;;;;;;;14.99;100.00;100036.72;4960883;28;20012;-68
2021/07/30 03:36:35;;;;;;;;;;;;;;;14.99;100.00;100030.53;4960825;28;19921;-67
2021/07/30 03:39:19;;;;;;;;;;;;;;;14.99;100.00;100034.03;4960761;28;20417;-68
2021/07/30 03:42:03;;;;;;;;;;;;;;;15.00;100.00;100037.56;4960995;28;19924;-68
2021/07/30 03:44:46;;;;;;;;;;;;;;;14.99;100.00;100033.22;4960747;28;19921;-68
2021/07/30 03:47:30;;;;;;;;;;;;;;;14.98;100.00;100029.69;4960630;28;20467;-67
2021/07/30 03:50:14;;;;;;;;;;;;;;;14.98;100.00;100026.19;4960586;28;19921;-67
2021/07/30 03:53:01;;;;;;;;;;;;;;;14.95;100.00;100024.69;4960828;28;20303;-68
2021/07/30 03:55:45;;;;;;;;;;;;;;;14.97;100.00;100032.53;4960441;28;20025;-67
2021/07/30 03:58:29;;;;;;;;;;;;;;;14.98;100.00;100034.22;4959721;28;19952;-67
2021/07/30 04:01:13;;;;;;;;;;;;;;;14.99;100.00;100035.91;4960359;28;20004;-66
2021/07/30 04:03:57;;;;;;;;;;;;;;;14.98;100.00;100028.84;4960799;28;19921;-67
2021/07/30 04:06:41;;;;;;;;;;;;;;;15.01;100.00;100033.88;4960215;28;19922;-67
2021/07/30 04:09:25;;;;;;;;;;;;;;;14.99;100.00;100025.16;4960504;28;19960;-66
2021/07/30 04:12:09;;;;;;;;;;;;;;;14.94;100.00;100027.53;4960478;28;20354;-66
2021/07/30 04:14:53;;;;;;;;;;;;;;;14.88;100.00;100028.25;4960707;28;19921;-67
2021/07/30 04:17:37;;;;;;;;;;;;;;;14.81;100.00;100025.41;4960069;28;19945;-64
2021/07/30 04:20:21;;;;;;;;;;;;;;;14.78;100.00;100027.63;4960425;28;19925;-67
2021/07/30 04:23:05;;;;;;;;;;;;;;;14.73;100.00;100030.00;4960327;28;20343;-67
2021/07/30 04:25:49;;;;;;;;;;;;;;;14.68;100.00;100033.22;4960618;28;19921;-67
2021/07/30 04:28:33;;;;;;;;;;;;;;;14.65;100.00;100032.72;4960206;28;19936;-67
2021/07/30 04:31:17;;;;;;;;;;;;;;;14.64;100.00;100036.41;4959909;28;20025;-66
2021/07/30 04:34:01;;;;;;;;;;;;;;;14.64;100.00;100036.41;4960317;28;19925;-67
2021/07/30 04:36:45;;;;;;;;;;;;;;;14.63;100.00;100032.91;4960151;28;19936;-67
2021/07/30 04:39:29;;;;;;;;;;;;;;;14.64;100.00;100033.75;4973727;28;19926;-67
2021/07/30 04:42:13;;;;;;;;;;;;;;;14.63;100.00;100034.75;4960115;28;19937;-67
2021/07/30 04:44:57;;;;;;;;;;;;;;;14.58;100.00;100031.78;4974991;28;19941;-67
2021/07/30 04:47:41;;;;;;;;;;;;;;;14.56;100.00;100031.09;4973396;28;20024;-67
2021/07/30 04:50:26;;;;;;;;;;;;;;;14.56;100.00;100037.31;4973702;28;20356;-67
2021/07/30 04:53:10;;;;;;;;;;;;;;;14.58;100.00;100037.13;4960250;28;19937;-67
2021/07/30 04:55:54;;;;;;;;;;;;;;;14.61;100.00;100036.78;4959757;28;20393;-67
2021/07/30 04:58:38;;;;;;;;;;;;;;;14.66;100.00;100035.25;4973517;28;19924;-66
2021/07/30 05:01:22;;;;;;;;;;;;;;;14.70;100.00;100035.72;4973241;28;19929;-67
2021/07/30 05:04:06;;;;;;;;;;;;;;;14.74;100.00;100035.19;4973571;28;19929;-68
2021/07/30 05:06:50;;;;;;;;;;;;;;;14.80;100.00;100031.78;4959942;28;20286;-68
2021/07/30 05:09:34;;;;;;;;;;;;;;;14.87;100.00;100031.91;4960558;28;20283;-66
2021/07/30 05:12:18;;;;;;;;;;;;;;;14.93;100.00;100021.34;4976804;28;19921;-68
2021/07/30 05:15:02;;;;;;;;;;;;;;;15.01;100.00;100028.50;4963408;28;20012;-68
2021/07/30 05:17:46;;;;;;;;;;;;;;;15.08;100.00;100029.47;4963294;28;19921;-67
2021/07/30 05:20:29;;;;;;;;;;;;;;;15.18;100.00;100025.50;4963269;28;20386;-67
2021/07/30 05:23:13;;;;;;;;;;;;;;;15.29;100.00;100033.16;4963196;28;20394;-67
2021/07/30 05:25:58;;;;;;;;;;;;;;;15.40;100.00;100026.56;4963164;28;19976;-67
2021/07/30 05:28:42;;;;;;;;;;;;;;;15.47;100.00;100035.53;4963057;28;19968;-67
2021/07/30 05:31:26;;;;;;;;;;;;;;;15.56;100.00;100032.63;4963018;28;20334;-67
2021/07/30 05:34:10;;;;;;;;;;;;;;;15.61;100.00;100027.53;4963003;28;20382;-66
2021/07/30 05:36:53;;;;;;;;;;;;;;;15.63;100.00;100023.66;4962987;28;20017;-67
2021/07/30 05:39:37;;;;;;;;;;;;;;;15.73;100.00;100029.59;4962624;28;19965;-67
2021/07/30 05:42:21;;;;;;;;;;;;;;;15.82;100.00;100020.44;4962763;28;19941;-66
2021/07/30 05:45:05;;;;;;;;;;;;;;;15.91;100.00;100030.09;4962557;28;19921;-67
2021/07/30 05:47:49;;;;;;;;;;;;;;;16.02;100.00;100026.94;4976216;28;19921;-67
2021/07/30 05:50:33;;;;;;;;;;;;;;;16.15;100.00;100023.63;4976428;28;19920;-66
2021/07/30 05:53:17;;;;;;;;;;;;;;;16.25;100.00;100021.47;4962988;28;19964;-67
2021/07/30 05:56:01;;;;;;;;;;;;;;;16.33;100.00;100018.69;4962324;28;19965;-68
2021/07/30 05:58:45;;;;;;;;;;;;;;;16.40;100.00;100020.47;4962208;28;20064;-67
2021/07/30 06:01:29;;;;;;;;;;;;;;;16.51;100.00;100014.63;4962564;28;20029;-67
2021/07/30 06:04:13;;;;;;;;;;;;;;;16.63;100.00;100013.13;4976123;28;20322;-67
2021/07/30 06:06:57;;;;;;;;;;;;;;;16.70;100.00;100014.00;4962151;28;20352;-67
2021/07/30 06:09:41;;;;;;;;;;;;;;;16.80;100.00;100013.72;4962530;28;19965;-67
2021/07/30 06:12:25;;;;;;;;;;;;;;;16.91;100.00;100005.16;4961983;28;19921;-66
2021/07/30 06:15:09;;;;;;;;;;;;;;;17.01;100.00;99998.41;4962353;28;19980;-67
2021/07/30 06:17:53;;;;;;;;;;;;;;;17.11;100.00;99995.41;4962040;28;19926;-67
2021/07/30 06:20:36;;;;;;;;;;;;;;;17.19;100.00;99988.03;4961923;28;20394;-67
2021/07/30 06:23:20;;;;;;;;;;;;;;;17.29;100.00;99996.63;4962213;28;19964;-67
2021/07/30 06:26:04;;;;;;;;;;;;;;;17.41;100.00;100005.88;4976074;28;19961;-67
2021/07/30 06:28:48;;;;;;;;;;;;;;;17.52;100.00;100005.34;4961810;28;19921;-65
2021/07/30 06:31:32;;;;;;;;;;;;;;;17.69;100.00;100004.03;4975380;28;20441;-67
2021/07/30 06:34:16;;;;;;;;;;;;;;;17.79;99.81;100009.94;4976286;28;19964;-67
2021/07/30 06:37:00;;;;;;;;;;;;;;;17.92;95.10;100010.00;4961553;28;20394;-67
2021/07/30 06:39:44;;;;;;;;;;;;;;;18.00;96.02;100007.16;4961506;28;20009;-67
2021/07/30 06:42:28;;;;;;;;;;;;;;;18.11;95.69;100013.88;4961433;28;19964;-66
2021/07/30 06:45:12;;;;;;;;;;;;;;;18.24;93.95;100012.06;4961487;28;19967;-67
2021/07/30 06:47:55;;;;;;;;;;;;;;;18.34;93.28;100009.06;4975550;28;19976;-65
2021/07/30 06:50:40;;;;;;;;;;;;;;;18.42;93.59;100017.81;4961738;28;20323;-67
2021/07/30 06:53:23;;;;;;;;;;;;;;;18.52;94.29;100004.78;4975217;28;20303;-67
2021/07/30 06:56:11;;;;;;;;;;;;;;;18.47;90.66;100015.38;4961524;28;20379;-66
2021/07/30 06:58:55;;;;;;;;;;;;;;;18.56;88.91;100006.88;4975047;28;20515;-66
2021/07/30 07:01:39;;;;;;;;;;;;;;;18.62;88.69;100002.53;4961695;28;20370;-67
2021/07/30 07:04:22;;;;;;;;;;;;;;;18.69;90.87;100004.22;4975053;28;20021;-66
2021/07/30 07:07:06;;;;;;;;;;;;;;;18.77;90.39;100005.94;4960952;28;19938;-67
2021/07/30 07:09:51;;;;;;;;;;;;;;;18.85;89.11;100000.31;4961405;28;19921;-67
2021/07/30 07:12:36;;;;;;;;;;;;;;;18.90;88.04;100005.97;4961045;28;20017;-67
2021/07/30 07:15:19;;;;;;;;;;;;;;;19.01;89.16;99997.28;4975082;28;19921;-67
2021/07/30 07:18:03;;;;;;;;;;;;;;;19.14;89.04;100000.00;4961373;28;19921;-67
2021/07/30 07:20:47;;;;;;;;;;;;;;;19.35;87.59;99997.97;4961320;28;19921;-67
2021/07/30 07:23:31;;;;;;;;;;;;;;;19.48;85.70;99999.88;4960750;28;19921;-67
2021/07/30 07:26:15;;;;;;;;;;;;;;;19.57;85.08;99998.59;4961086;28;19960;-65
2021/07/30 07:28:59;;;;;;;;;;;;;;;19.71;85.37;99992.16;4960925;28;20283;-67
2021/07/30 07:31:45;;;;;;;;;;;;;;;19.75;82.89;99996.09;4986602;22;19964;-69
2021/07/30 07:34:29;;;;;;;;;;;;;;;19.85;82.16;99978.41;4979954;28;19983;-68
2021/07/30 07:37:13;;;;;;;;;;;;;;;19.90;82.35;99985.91;4980431;28;19920;-69
2021/07/30 07:39:57;;;;;;;;;;;;;;;20.02;83.81;99976.91;4980088;28;20052;-68
2021/07/30 07:42:41;;;;;;;;;;;;;;;20.09;81.81;99976.94;5002833;28;19967;-69
2021/07/30 07:45:25;;;;;;;;;;;;;;;20.22;82.27;99977.72;4999157;28;19920;-69
2021/07/30 07:48:08;;;;;;;;;;;;;;;20.30;82.89;99976.69;4999137;28;19924;-68
2021/07/30 07:50:52;;;;;;;;;;;;;;;20.47;82.42;99985.97;4999374;28;20377;-68
2021/07/30 07:53:36;;;;;;;;;;;;;;;20.56;80.86;99981.97;4999032;28;19920;-68
2021/07/30 07:56:20;;;;;;;;;;;;;;;20.71;78.94;99980.66;4998871;28;20015;-69
2021/07/30 07:59:04;;;;;;;;;;;;;;;20.81;79.16;99966.66;4998971;28;20382;-69
2021/07/30 08:01:48;;;;;;;;;;;;;;;20.88;76.45;99973.72;4998957;28;20505;-69
2021/07/30 08:04:32;;;;;;;;;;;;;;;20.94;75.86;99966.63;4999219;28;19916;-68
2021/07/30 08:07:17;;;;;;;;;;;;;;;21.02;76.74;99963.66;4999200;28;19980;-68
2021/07/30 08:10:01;;;;;;;;;;;;;;;21.04;73.58;99956.94;4999118;28;19963;-69
2021/07/30 08:12:46;;;;;;;;;;;;;;;21.12;71.66;99969.41;5012812;28;19920;-68
2021/07/30 08:15:30;;;;;;;;;;;;;;;21.08;70.38;99960.91;4999313;28;19960;-68
2021/07/30 08:18:14;;;;;;;;;;;;;;;21.16;69.21;99966.06;4999131;28;20412;-68
2021/07/30 08:20:59;;;;;;;;;;;;;;;21.22;70.70;99972.47;4998995;28;19925;-68
2021/07/30 08:23:43;;;;;;;;;;;;;;;21.32;70.69;99968.22;4999273;28;19959;-68
2021/07/30 08:26:27;;;;;;;;;;;;;;;21.45;69.78;99971.66;4999099;28;19921;-68
2021/07/30 08:29:11;;;;;;;;;;;;;;;21.54;69.53;99974.91;4998985;28;20342;-68
2021/07/30 08:31:55;;;;;;;;;;;;;;;21.64;70.92;99970.69;4998737;28;20008;-68
2021/07/30 08:34:39;;;;;;;;;;;;;;;21.71;70.39;99982.31;4998925;28;19920;-68
2021/07/30 08:37:23;;;;;;;;;;;;;;;21.82;69.56;99976.19;4998868;28;19921;-68
2021/07/30 08:40:07;;;;;;;;;;;;;;;21.87;69.86;99973.59;4998799;28;19967;-68
2021/07/30 08:42:52;;;;;;;;;;;;;;;22.04;69.21;99971.97;4998689;28;19924;-66
2021/07/30 08:45:36;;;;;;;;;;;;;;;22.13;68.79;99976.06;5001251;28;20309;-68
2021/07/30 08:48:19;;;;;;;;;;;;;;;22.10;67.14;99981.94;5002773;28;19939;-68
2021/07/30 08:51:03;;;;;;;;;;;;;;;22.25;68.56;99968.81;5002407;28;19940;-68
2021/07/30 08:53:47;;;;;;;;;;;;;;;22.27;66.22;99964.00;5002499;28;20321;-68
2021/07/30 08:56:33;;;;;;;;;;;;;;;22.45;67.97;99969.47;5002376;28;20061;-68
2021/07/30 08:59:17;;;;;;;;;;;;;;;22.55;65.55;99961.59;5002741;28;19964;-68
2021/07/30 09:02:01;;;;;;;;;;;;;;;22.68;65.96;99966.84;5016090;28;19925;-68
2021/07/30 09:04:45;;;;;;;;;;;;;;;22.81;64.59;99953.06;5002249;28;19920;-68
2021/07/30 09:07:39;;;;;;;;;;;;;;;22.99;65.63;99958.47;5002426;28;19923;-68
2021/07/30 09:10:27;;;;;;;;;;;;;;;23.09;64.81;99956.03;5002533;28;19920;-68
2021/07/30 09:13:25;;;;;;;;;;;;;;;23.11;64.39;99940.31;5002212;28;19920;-68
2021/07/30 09:16:09;;;;;;;;;;;;;;;23.31;63.03;99938.13;5002280;28;19964;-68
2021/07/30 09:18:53;;;;;;;;;;;;;;;23.37;62.86;99939.94;5001866;28;20011;-68
2021/07/30 09:21:37;;;;;;;;;;;;;;;23.46;61.39;99937.69;5002177;28;20296;-69
2021/07/30 09:24:21;;;;;;;;;;;;;;;23.52;61.55;99928.59;5002003;28;20389;-68
2021/07/30 09:27:09;;;;;;;;;;;;;;;23.68;62.33;99933.31;5002951;28;20298;-68
2021/07/30 09:29:53;;;;;;;;;;;;;;;23.69;59.63;99938.53;5001942;28;19920;-68
2021/07/30 09:32:37;;;;;;;;;;;;;;;23.99;60.56;99924.81;5001536;28;19948;-68
2021/07/30 09:35:21;;;;;;;;;;;;;;;24.17;59.62;99923.59;5000749;28;19920;-68
2021/07/30 09:38:14;;;;;;;;;;;;;;;24.51;59.55;99916.41;5000725;28;20290;-68
2021/07/30 09:41:12;;;;;;;;;;;;;;;24.86;56.37;99917.13;5000704;28;20020;-69
2021/07/30 09:44:03;;;;;;;;;;;;;;;25.01;53.86;99910.03;5000322;28;20018;-68
2021/07/30 09:47:16;;;;;;;;;;;;;;;24.99;51.13;99911.34;5000637;28;20016;-68
2021/07/30 09:50:01;;;;;;;;;;;;;;;25.16;51.90;99912.19;5010676;28;19940;-67
2021/07/30 09:52:44;;;;;;;;;;;;;;;25.29;50.07;99917.38;5000282;28;19920;-68
2021/07/30 09:55:28;;;;;;;;;;;;;;;25.39;48.79;99912.06;5000229;28;19925;-68
2021/07/30 09:58:12;;;;;;;;;;;;;;;25.33;50.68;99916.63;4999925;28;19919;-68
2021/07/30 10:00:56;;;;;;;;;;;;;;;25.54;50.04;99909.59;5000562;28;19925;-68
2021/07/30 10:03:40;;;;;;;;;;;;;;;25.90;49.71;99904.47;5000280;28;19919;-68
2021/07/30 10:06:26;;;;;;;;;;;;;;;26.18;48.75;99906.19;5000812;28;20305;-68
2021/07/30 10:09:11;;;;;;;;;;;;;;;26.28;48.18;99911.78;5000308;28;19963;-68
2021/07/30 10:11:55;;;;;;;;;;;;;;;26.84;47.46;99895.00;5000207;28;19959;-68
2021/07/30 10:14:39;;;;;;;;;;;;;;;27.08;44.92;99900.69;4999960;28;19920;-69
2021/07/30 10:17:32;;;;;;;;;;;;;;;27.53;45.71;99898.34;5000171;28;19920;-68
2021/07/30 10:20:17;;;;;;;;;;;;;;;28.12;42.45;99893.59;5000047;28;19920;-69
2021/07/30 10:23:07;;;;;;;;;;;;;;;29.34;41.49;99886.25;4999808;28;19944;-69
2021/07/30 10:25:55;;;;;;;;;;;;;;;29.49;38.71;99887.13;5013917;28;20301;-68
2021/07/30 10:28:39;;;;;;;;;;;;;;;29.52;39.11;99877.47;4999907;28;20385;-68
2021/07/30 10:31:23;;;;;;;;;;;;;;;29.89;38.00;99877.97;4999884;28;19959;-68
2021/07/30 10:34:18;;;;;;;;;;;;;;;30.47;36.81;99869.78;5132114;27;19937;-67
2021/07/30 10:37:02;;;;;;;;;;;;;;;31.58;35.46;99871.50;5131283;28;19922;-67
2021/07/30 10:40:05;;;;;;;;;;;;;;;32.33;34.31;99875.41;5116725;28;20000;-66
2021/07/30 10:43:02;;;;;;;;;;;;;;;34.23;31.63;99876.78;5130711;28;20027;-67
2021/07/30 10:46:11;;;;;;;;;;;;;;;33.69;31.96;99871.16;5116642;28;19922;-66
2021/07/30 10:48:55;;;;;;;;;;;;;;;34.36;31.67;99851.03;5129379;28;19922;-66
2021/07/30 10:51:38;;;;;;;;;;;;;;;33.67;31.35;99855.97;5116253;28;19922;-67
2021/07/30 10:54:28;;;;;;;;;;;;;;;33.17;33.65;99841.09;5116451;28;19968;-67
2021/07/30 10:57:13;;;;;;;;;;;;;;;33.95;32.47;99858.50;5116112;28;19923;-67
2021/07/30 11:00:04;;;;;;;;;;;;;;;34.55;31.50;99832.34;5116373;28;19985;-67
2021/07/30 11:03:01;;;;;;;;;;;;;;;35.58;30.13;99822.94;5116976;28;19923;-66
2021/07/30 11:06:04;;;;;;;;;;;;;;;36.58;28.11;99815.31;5116159;28;19949;-65
2021/07/30 11:09:03;;;;;;;;;;;;;;;35.61;28.29;99841.69;5131563;28;20296;-66
2021/07/30 11:11:49;;;;;;;;;;;;;;;34.44;31.24;99850.31;5130520;28;20400;-66
2021/07/30 11:14:36;;;;;;;;;;;;;;;34.64;30.89;99837.94;5116367;28;19926;-67
2021/07/30 11:17:20;;;;;;;;;;;;;;;33.69;31.52;99832.44;5116187;28;19972;-66
2021/07/30 11:20:04;;;;;;;;;;;;;;;33.85;31.27;99831.03;5130417;28;19974;-66
2021/07/30 11:22:48;;;;;;;;;;;;;;;34.10;31.09;99833.31;5130102;28;20031;-66
2021/07/30 11:25:32;;;;;;;;;;;;;;;34.41;30.04;99837.09;5130408;28;19944;-66
2021/07/30 11:28:16;;;;;;;;;;;;;;;34.78;30.73;99828.50;5115939;28;19923;-66
2021/07/30 11:31:00;;;;;;;;;;;;;;;34.43;31.04;99837.59;5115866;28;19927;-67
2021/07/30 11:33:44;;;;;;;;;;;;;;;34.64;31.29;99826.88;5115285;28;19927;-67
2021/07/30 11:36:28;;;;;;;;;;;;;;;35.48;29.41;99820.41;5115927;28;20003;-66
2021/07/30 11:39:11;;;;;;;;;;;;;;;34.13;31.78;99834.59;5130105;28;19923;-66
2021/07/30 11:41:55;;;;;;;;;;;;;;;32.86;34.14;99821.69;5130183;28;20330;-67
2021/07/30 11:44:43;;;;;;;;;;;;;;;33.02;34.50;99821.19;5122116;28;19927;-67
2021/07/30 11:47:28;;;;;;;;;;;;;;;33.16;34.12;99828.38;5116752;28;20008;-66
2021/07/30 11:50:15;;;;;;;;;;;;;;;33.18;33.20;99826.16;5102072;28;19923;-66
2021/07/30 11:53:04;;;;;;;;;;;;;;;33.10;33.15;99832.34;5102338;28;19977;-67
2021/07/30 11:55:55;;;;;;;;;;;;;;;33.60;33.42;99825.97;5102185;28;20321;-67
2021/07/30 11:59:14;;;;;;;;;;;;;;;33.46;32.66;99822.34;5101922;28;19970;-66
2021/07/30 12:02:02;;;;;;;;;;;;;;;33.48;32.83;99814.59;5060167;28;19923;-66
2021/07/30 12:04:53;;;;;;;;;;;;;;;34.13;31.50;99802.25;5101856;28;19923;-66
2021/07/30 12:07:39;;;;;;;;;;;;;;;34.64;31.04;99791.72;5101746;28;19953;-66
2021/07/30 12:10:23;;;;;;;;;;;;;;;35.60;30.32;99784.59;5101775;28;19923;-66
2021/07/30 12:13:07;;;;;;;;;;;;;;;35.05;30.75;99777.72;5101158;28;19972;-66
2021/07/30 12:15:51;;;;;;;;;;;;;;;35.56;29.20;99776.09;5101191;28;20011;-66
2021/07/30 12:18:41;;;;;;;;;;;;;;;35.82;29.24;99770.69;5101177;28;20292;-66
2021/07/30 12:21:25;;;;;;;;;;;;;;;35.41;29.83;99764.59;5101902;28;19941;-66
2021/07/30 12:24:09;;;;;;;;;;;;;;;35.55;29.72;99766.16;5101149;28;19922;-66
2021/07/30 12:26:53;;;;;;;;;;;;;;;35.49;30.24;99761.88;5101053;28;19923;-66
2021/07/30 12:29:36;;;;;;;;;;;;;;;35.46;29.67;99758.91;5101578;28;19965;-66
2021/07/30 12:32:24;;;;;;;;;;;;;;;37.06;28.49;99749.31;5115497;28;19926;-67
2021/07/30 12:35:11;;;;;;;;;;;;;;;37.32;27.88;99752.84;5101122;28;20338;-67
2021/07/30 12:38:06;;;;;;;;;;;;;;;36.64;28.82;99747.34;5115235;28;19969;-67
2021/07/30 12:40:50;;;;;;;;;;;;;;;36.39;28.75;99743.41;5101128;28;20437;-66
2021/07/30 12:43:37;;;;;;;;;;;;;;;35.85;28.52;99739.50;5100936;28;19939;-67
2021/07/30 12:46:43;;;;;;;;;;;;;;;33.73;31.53;99733.94;5100630;28;19923;-66
2021/07/30 12:49:27;;;;;;;;;;;;;;;33.79;32.51;99731.91;5101099;28;19926;-66
2021/07/30 12:52:11;;;;;;;;;;;;;;;34.53;31.21;99715.56;5100555;28;19922;-66
2021/07/30 12:55:02;;;;;;;;;;;;;;;35.15;30.04;99717.31;5100644;28;20359;-66
2021/07/30 12:57:52;;;;;;;;;;;;;;;34.12;31.48;99712.09;5100219;28;19930;-67
2021/07/30 13:00:36;;;;;;;;;;;;;;;33.94;32.01;99707.50;5100476;28;19949;-66
2021/07/30 13:03:20;;;;;;;;;;;;;;;34.52;31.82;99700.09;5100759;28;19947;-67
2021/07/30 13:06:06;;;;;;;;;;;;;;;35.78;30.45;99690.06;5100724;28;20057;-66
2021/07/30 13:08:52;;;;;;;;;;;;;;;35.16;29.70;99694.00;5114478;28;20068;-67
2021/07/30 13:11:38;;;;;;;;;;;;;;;35.02;30.68;99679.44;5114453;28;20015;-67
2021/07/30 13:14:22;;;;;;;;;;;;;;;35.90;29.39;99673.59;5114525;28;19973;-66
2021/07/30 13:17:06;;;;;;;;;;;;;;;36.24;28.71;99668.94;5100455;28;19922;-67
2021/07/30 13:19:53;;;;;;;;;;;;;;;36.37;28.48;99673.50;5114277;28;19957;-67
2021/07/30 13:22:37;;;;;;;;;;;;;;;35.79;29.25;99672.28;5100873;28;19965;-67
2021/07/30 13:25:22;;;;;;;;;;;;;;;34.95;30.14;99656.91;5100026;28;19958;-66
2021/07/30 13:28:06;;;;;;;;;;;;;;;35.62;30.87;99650.00;5114946;28;19923;-67
2021/07/30 13:30:55;;;;;;;;;;;;;;;35.76;29.73;99650.75;5099996;28;19926;-67
2021/07/30 13:33:39;;;;;;;;;;;;;;;34.37;31.83;99647.06;5113786;28;19973;-67
2021/07/30 13:36:23;;;;;;;;;;;;;;;33.73;33.52;99639.13;5099916;28;19922;-66
2021/07/30 13:39:07;;;;;;;;;;;;;;;34.69;31.20;99633.75;5100217;28;19926;-66
2021/07/30 13:41:51;;;;;;;;;;;;;;;34.93;31.23;99630.66;5099710;28;19923;-67
2021/07/30 13:44:35;;;;;;;;;;;;;;;34.38;31.85;99634.84;5099558;28;20049;-67
2021/07/30 13:47:19;;;;;;;;;;;;;;;33.75;33.15;99626.63;5099970;28;20371;-67
2021/07/30 13:50:04;;;;;;;;;;;;;;;33.46;33.29;99623.34;5099776;28;20394;-67
2021/07/30 13:52:47;;;;;;;;;;;;;;;34.09;33.10;99615.88;5113633;28;19926;-67
2021/07/30 13:55:31;;;;;;;;;;;;;;;32.55;34.52;99616.25;5099227;28;19922;-67
2021/07/30 13:58:15;;;;;;;;;;;;;;;32.67;34.71;99614.66;5099597;28;19923;-67
2021/07/30 14:00:59;;;;;;;;;;;;;;;32.45;35.55;99620.03;5099524;28;19930;-66
2021/07/30 14:03:44;;;;;;;;;;;;;;;32.23;35.76;99613.50;5099169;28;19922;-67
2021/07/30 14:06:29;;;;;;;;;;;;;;;32.69;36.30;99612.41;5099663;28;19923;-69
2021/07/30 14:09:13;;;;;;;;;;;;;;;33.81;33.89;99611.56;5099657;28;20292;-69
2021/07/30 14:11:57;;;;;;;;;;;;;;;34.35;33.24;99619.69;5099080;28;19926;-68